sensor_id;sensor_type;location;lat;lon;timestamp;temperature;humidity
5520;DHT22;2782;52.362;10.012;2023-07-22T00:00:46;22.00;66.20
5520;DHT22;2782;52.362;10.012;2023-07-22T00:01:48;22.00;66.20
5520;DHT22;2782;52.362;10.012;2023-07-22T00:02:49;22.00;66.20
5520;DHT22;2782;52.362;10.012;2023-07-22T00:03:50;22.00;66.20
5520;DHT22;2782;52.362;10.012;2023-07-22T00:04:51;22.00;66.20
5520;DHT22;2782;52.362;10.012;2023-07-22T00:06:02;22.00;66.20
5520;DHT22;2782;52.362;10.012;2023-07-22T00:07:05;22.00;66.40
5520;DHT22;2782;52.362;10.012;2023-07-22T00:08:07;22.00;66.40
5520;DHT22;2782;52.362;10.012;2023-07-22T00:09:07;22.00;66.50
5520;DHT22;2782;52.362;10.012;2023-07-22T00:10:10;22.00;66.30
5520;DHT22;2782;52.362;10.012;2023-07-22T00:11:11;22.00;66.40
5520;DHT22;2782;52.362;10.012;2023-07-22T00:12:12;22.00;66.50
5520;DHT22;2782;52.362;10.012;2023-07-22T00:13:13;22.00;66.40
5520;DHT22;2782;52.362;10.012;2023-07-22T00:14:15;22.00;66.30
5520;DHT22;2782;52.362;10.012;2023-07-22T00:15:15;22.00;66.30
5520;DHT22;2782;52.362;10.012;2023-07-22T00:16:17;22.00;66.30
5520;DHT22;2782;52.362;10.012;2023-07-22T00:17:18;22.00;66.30
5520;DHT22;2782;52.362;10.012;2023-07-22T00:18:21;22.00;66.40
5520;DHT22;2782;52.362;10.012;2023-07-22T00:19:22;22.00;66.40
5520;DHT22;2782;52.362;10.012;2023-07-22T00:20:24;22.00;66.30
5520;DHT22;2782;52.362;10.012;2023-07-22T00:21:26;22.00;66.50
5520;DHT22;2782;52.362;10.012;2023-07-22T00:22:30;22.00;66.50
5520;DHT22;2782;52.362;10.012;2023-07-22T00:23:30;22.00;66.40
5520;DHT22;2782;52.362;10.012;2023-07-22T00:24:32;22.00;66.40
5520;DHT22;2782;52.362;10.012;2023-07-22T00:25:34;22.00;66.50
5520;DHT22;2782;52.362;10.012;2023-07-22T00:26:35;21.90;66.40
5520;DHT22;2782;52.362;10.012;2023-07-22T00:27:36;22.00;66.50
5520;DHT22;2782;52.362;10.012;2023-07-22T00:28:38;22.00;66.50
5520;DHT22;2782;52.362;10.012;2023-07-22T00:29:39;22.00;66.50
5520;DHT22;2782;52.362;10.012;2023-07-22T00:30:41;22.00;66.70
5520;DHT22;2782;52.362;10.012;2023-07-22T00:31:42;22.00;66.50
5520;DHT22;2782;52.362;10.012;2023-07-22T00:32:43;22.00;66.30
5520;DHT22;2782;52.362;10.012;2023-07-22T00:33:44;22.00;66.50
5520;DHT22;2782;52.362;10.012;2023-07-22T00:34:45;22.00;66.50
5520;DHT22;2782;52.362;10.012;2023-07-22T00:35:47;22.00;66.60
5520;DHT22;2782;52.362;10.012;2023-07-22T00:36:50;22.00;66.60
5520;DHT22;2782;52.362;10.012;2023-07-22T00:37:52;22.00;66.70
5520;DHT22;2782;52.362;10.012;2023-07-22T00:38:54;22.00;66.60
5520;DHT22;2782;52.362;10.012;2023-07-22T00:39:55;22.00;66.70
5520;DHT22;2782;52.362;10.012;2023-07-22T00:40:56;22.00;66.70
5520;DHT22;2782;52.362;10.012;2023-07-22T00:41:57;22.00;66.70
5520;DHT22;2782;52.362;10.012;2023-07-22T00:42:58;22.00;66.70
5520;DHT22;2782;52.362;10.012;2023-07-22T00:44:00;22.00;66.70
5520;DHT22;2782;52.362;10.012;2023-07-22T00:45:01;22.00;66.60
5520;DHT22;2782;52.362;10.012;2023-07-22T00:46:03;22.00;66.70
5520;DHT22;2782;52.362;10.012;2023-07-22T00:47:04;22.00;67.00
5520;DHT22;2782;52.362;10.012;2023-07-22T00:48:07;22.00;67.00
5520;DHT22;2782;52.362;10.012;2023-07-22T00:49:09;22.00;67.00
5520;DHT22;2782;52.362;10.012;2023-07-22T00:50:11;22.00;67.00
5520;DHT22;2782;52.362;10.012;2023-07-22T00:51:12;22.00;67.00
5520;DHT22;2782;52.362;10.012;2023-07-22T00:52:14;22.00;67.00
5520;DHT22;2782;52.362;10.012;2023-07-22T00:53:16;22.00;67.00
5520;DHT22;2782;52.362;10.012;2023-07-22T00:54:18;22.00;67.10
5520;DHT22;2782;52.362;10.012;2023-07-22T00:55:19;22.00;67.30
5520;DHT22;2782;52.362;10.012;2023-07-22T00:56:21;22.00;67.30
5520;DHT22;2782;52.362;10.012;2023-07-22T00:57:22;22.00;67.30
5520;DHT22;2782;52.362;10.012;2023-07-22T00:58:23;22.00;67.40
5520;DHT22;2782;52.362;10.012;2023-07-22T00:59:25;22.00;67.40
5520;DHT22;2782;52.362;10.012;2023-07-22T01:00:26;22.00;67.40
5520;DHT22;2782;52.362;10.012;2023-07-22T01:01:27;22.00;67.40
5520;DHT22;2782;52.362;10.012;2023-07-22T01:02:28;22.00;67.40
5520;DHT22;2782;52.362;10.012;2023-07-22T01:03:30;22.00;67.50
5520;DHT22;2782;52.362;10.012;2023-07-22T01:04:33;22.00;67.40
5520;DHT22;2782;52.362;10.012;2023-07-22T01:05:36;22.00;68.10
5520;DHT22;2782;52.362;10.012;2023-07-22T01:06:37;22.00;67.50
5520;DHT22;2782;52.362;10.012;2023-07-22T01:07:39;22.00;67.50
5520;DHT22;2782;52.362;10.012;2023-07-22T01:08:41;22.00;67.50
5520;DHT22;2782;52.362;10.012;2023-07-22T01:09:43;22.00;67.50
5520;DHT22;2782;52.362;10.012;2023-07-22T01:10:44;22.00;67.50
5520;DHT22;2782;52.362;10.012;2023-07-22T01:11:46;22.00;67.50
5520;DHT22;2782;52.362;10.012;2023-07-22T01:12:47;22.00;67.60
5520;DHT22;2782;52.362;10.012;2023-07-22T01:13:48;22.00;67.50
5520;DHT22;2782;52.362;10.012;2023-07-22T01:14:49;22.00;67.40
5520;DHT22;2782;52.362;10.012;2023-07-22T01:15:51;22.00;67.50
5520;DHT22;2782;52.362;10.012;2023-07-22T01:16:52;22.00;67.50
5520;DHT22;2782;52.362;10.012;2023-07-22T01:17:54;22.00;67.50
5520;DHT22;2782;52.362;10.012;2023-07-22T01:18:56;22.00;67.50
5520;DHT22;2782;52.362;10.012;2023-07-22T01:19:59;22.00;67.50
5520;DHT22;2782;52.362;10.012;2023-07-22T01:21:00;22.00;67.50
5520;DHT22;2782;52.362;10.012;2023-07-22T01:22:03;22.00;67.50
5520;DHT22;2782;52.362;10.012;2023-07-22T01:23:05;22.00;67.50
5520;DHT22;2782;52.362;10.012;2023-07-22T01:24:07;22.00;67.60
5520;DHT22;2782;52.362;10.012;2023-07-22T01:25:08;22.00;67.60
5520;DHT22;2782;52.362;10.012;2023-07-22T01:26:10;21.90;68.20
5520;DHT22;2782;52.362;10.012;2023-07-22T01:27:12;21.90;67.70
5520;DHT22;2782;52.362;10.012;2023-07-22T01:28:14;21.90;67.50
5520;DHT22;2782;52.362;10.012;2023-07-22T01:29:15;22.00;67.60
5520;DHT22;2782;52.362;10.012;2023-07-22T01:30:16;22.00;67.70
5520;DHT22;2782;52.362;10.012;2023-07-22T01:31:18;21.90;67.50
5520;DHT22;2782;52.362;10.012;2023-07-22T01:32:19;22.00;67.60
5520;DHT22;2782;52.362;10.012;2023-07-22T01:33:21;22.00;67.60
5520;DHT22;2782;52.362;10.012;2023-07-22T01:34:22;22.00;67.60
5520;DHT22;2782;52.362;10.012;2023-07-22T01:35:25;21.90;67.60
5520;DHT22;2782;52.362;10.012;2023-07-22T01:36:26;22.00;67.60
5520;DHT22;2782;52.362;10.012;2023-07-22T01:37:28;22.00;67.60
5520;DHT22;2782;52.362;10.012;2023-07-22T01:38:30;22.00;67.60
5520;DHT22;2782;52.362;10.012;2023-07-22T01:39:32;22.00;67.60
5520;DHT22;2782;52.362;10.012;2023-07-22T01:40:33;21.90;67.40
5520;DHT22;2782;52.362;10.012;2023-07-22T01:41:35;21.90;67.40
5520;DHT22;2782;52.362;10.012;2023-07-22T01:42:36;22.00;67.50
5520;DHT22;2782;52.362;10.012;2023-07-22T01:43:37;22.00;67.50
5520;DHT22;2782;52.362;10.012;2023-07-22T01:44:40;21.90;67.40
5520;DHT22;2782;52.362;10.012;2023-07-22T01:45:41;21.90;67.40
5520;DHT22;2782;52.362;10.012;2023-07-22T01:46:42;21.90;67.40
5520;DHT22;2782;52.362;10.012;2023-07-22T01:47:44;21.90;67.40
5520;DHT22;2782;52.362;10.012;2023-07-22T01:48:45;21.90;67.40
5520;DHT22;2782;52.362;10.012;2023-07-22T01:49:46;21.90;67.40
5520;DHT22;2782;52.362;10.012;2023-07-22T01:50:47;21.90;67.50
5520;DHT22;2782;52.362;10.012;2023-07-22T01:51:49;21.90;67.50
5520;DHT22;2782;52.362;10.012;2023-07-22T01:52:50;21.90;67.50
5520;DHT22;2782;52.362;10.012;2023-07-22T01:53:53;21.90;67.40
5520;DHT22;2782;52.362;10.012;2023-07-22T01:54:57;21.90;67.40
5520;DHT22;2782;52.362;10.012;2023-07-22T01:55:58;21.90;67.40
5520;DHT22;2782;52.362;10.012;2023-07-22T01:56:59;21.90;67.50
5520;DHT22;2782;52.362;10.012;2023-07-22T01:58:01;21.90;67.50
5520;DHT22;2782;52.362;10.012;2023-07-22T01:59:01;21.90;67.50
5520;DHT22;2782;52.362;10.012;2023-07-22T02:00:04;21.90;67.40
5520;DHT22;2782;52.362;10.012;2023-07-22T02:01:05;21.90;67.40
5520;DHT22;2782;52.362;10.012;2023-07-22T02:02:08;21.90;67.40
5520;DHT22;2782;52.362;10.012;2023-07-22T02:03:08;21.90;67.40
5520;DHT22;2782;52.362;10.012;2023-07-22T02:04:10;21.90;67.50
5520;DHT22;2782;52.362;10.012;2023-07-22T02:05:11;21.90;67.40
5520;DHT22;2782;52.362;10.012;2023-07-22T02:06:13;21.90;67.50
5520;DHT22;2782;52.362;10.012;2023-07-22T02:07:14;21.90;67.50
5520;DHT22;2782;52.362;10.012;2023-07-22T02:08:15;21.90;67.50
5520;DHT22;2782;52.362;10.012;2023-07-22T02:09:17;21.90;68.20
5520;DHT22;2782;52.362;10.012;2023-07-22T02:10:19;21.90;67.50
5520;DHT22;2782;52.362;10.012;2023-07-22T02:11:20;21.90;67.50
5520;DHT22;2782;52.362;10.012;2023-07-22T02:12:21;21.90;67.40
5520;DHT22;2782;52.362;10.012;2023-07-22T02:13:22;21.90;68.20
5520;DHT22;2782;52.362;10.012;2023-07-22T02:14:22;21.90;67.40
5520;DHT22;2782;52.362;10.012;2023-07-22T02:15:24;21.90;67.40
5520;DHT22;2782;52.362;10.012;2023-07-22T02:16:25;21.90;67.50
5520;DHT22;2782;52.362;10.012;2023-07-22T02:17:26;21.90;67.50
5520;DHT22;2782;52.362;10.012;2023-07-22T02:18:27;21.90;67.50
5520;DHT22;2782;52.362;10.012;2023-07-22T02:19:29;21.90;67.50
5520;DHT22;2782;52.362;10.012;2023-07-22T02:20:30;21.90;67.50
5520;DHT22;2782;52.362;10.012;2023-07-22T02:21:31;21.90;67.40
5520;DHT22;2782;52.362;10.012;2023-07-22T02:22:33;21.90;67.40
5520;DHT22;2782;52.362;10.012;2023-07-22T02:23:34;21.90;67.40
5520;DHT22;2782;52.362;10.012;2023-07-22T02:24:36;21.90;67.40
5520;DHT22;2782;52.362;10.012;2023-07-22T02:25:38;21.90;67.40
5520;DHT22;2782;52.362;10.012;2023-07-22T02:26:39;21.90;67.40
5520;DHT22;2782;52.362;10.012;2023-07-22T02:27:40;21.90;67.40
5520;DHT22;2782;52.362;10.012;2023-07-22T02:28:41;21.90;67.40
5520;DHT22;2782;52.362;10.012;2023-07-22T02:29:43;21.90;67.40
5520;DHT22;2782;52.362;10.012;2023-07-22T02:30:44;21.90;67.40
5520;DHT22;2782;52.362;10.012;2023-07-22T02:31:45;21.90;67.40
5520;DHT22;2782;52.362;10.012;2023-07-22T02:32:46;21.90;67.40
5520;DHT22;2782;52.362;10.012;2023-07-22T02:33:48;21.90;67.40
5520;DHT22;2782;52.362;10.012;2023-07-22T02:34:49;21.90;67.40
5520;DHT22;2782;52.362;10.012;2023-07-22T02:35:50;21.90;67.40
5520;DHT22;2782;52.362;10.012;2023-07-22T02:36:51;21.90;67.50
5520;DHT22;2782;52.362;10.012;2023-07-22T02:37:53;21.90;67.40
5520;DHT22;2782;52.362;10.012;2023-07-22T02:38:53;21.90;67.40
5520;DHT22;2782;52.362;10.012;2023-07-22T02:39:56;21.90;67.40
5520;DHT22;2782;52.362;10.012;2023-07-22T02:41:01;21.90;67.50
5520;DHT22;2782;52.362;10.012;2023-07-22T02:42:03;21.90;67.40
5520;DHT22;2782;52.362;10.012;2023-07-22T02:43:04;21.90;67.30
5520;DHT22;2782;52.362;10.012;2023-07-22T02:44:07;21.90;67.40
5520;DHT22;2782;52.362;10.012;2023-07-22T02:45:09;21.90;67.40
5520;DHT22;2782;52.362;10.012;2023-07-22T02:46:10;21.90;67.40
5520;DHT22;2782;52.362;10.012;2023-07-22T02:47:11;21.90;67.40
5520;DHT22;2782;52.362;10.012;2023-07-22T02:48:12;21.80;67.30
5520;DHT22;2782;52.362;10.012;2023-07-22T02:49:15;21.80;67.30
5520;DHT22;2782;52.362;10.012;2023-07-22T02:50:15;21.90;67.40
5520;DHT22;2782;52.362;10.012;2023-07-22T02:51:17;21.90;67.40
5520;DHT22;2782;52.362;10.012;2023-07-22T02:52:18;21.90;67.40
5520;DHT22;2782;52.362;10.012;2023-07-22T02:53:19;21.90;67.40
5520;DHT22;2782;52.362;10.012;2023-07-22T02:54:20;21.90;67.40
5520;DHT22;2782;52.362;10.012;2023-07-22T02:55:23;21.90;67.40
5520;DHT22;2782;52.362;10.012;2023-07-22T02:56:24;21.90;67.40
5520;DHT22;2782;52.362;10.012;2023-07-22T02:57:25;21.90;67.40
5520;DHT22;2782;52.362;10.012;2023-07-22T02:58:27;21.90;67.40
5520;DHT22;2782;52.362;10.012;2023-07-22T02:59:27;21.80;67.30
5520;DHT22;2782;52.362;10.012;2023-07-22T03:00:29;21.90;67.40
5520;DHT22;2782;52.362;10.012;2023-07-22T03:01:30;21.90;67.40
5520;DHT22;2782;52.362;10.012;2023-07-22T03:02:32;21.80;67.20
5520;DHT22;2782;52.362;10.012;2023-07-22T03:03:32;21.90;68.00
5520;DHT22;2782;52.362;10.012;2023-07-22T03:04:34;21.90;67.30
5520;DHT22;2782;52.362;10.012;2023-07-22T03:05:35;21.90;68.00
5520;DHT22;2782;52.362;10.012;2023-07-22T03:06:36;21.80;67.30
5520;DHT22;2782;52.362;10.012;2023-07-22T03:07:38;21.80;67.30
5520;DHT22;2782;52.362;10.012;2023-07-22T03:08:39;21.80;67.20
5520;DHT22;2782;52.362;10.012;2023-07-22T03:09:41;21.80;67.20
5520;DHT22;2782;52.362;10.012;2023-07-22T03:10:43;21.80;67.30
5520;DHT22;2782;52.362;10.012;2023-07-22T03:11:48;21.80;67.20
5520;DHT22;2782;52.362;10.012;2023-07-22T03:12:49;21.80;67.20
5520;DHT22;2782;52.362;10.012;2023-07-22T03:13:55;21.80;67.20
5520;DHT22;2782;52.362;10.012;2023-07-22T03:14:55;21.80;67.20
5520;DHT22;2782;52.362;10.012;2023-07-22T03:15:57;21.80;67.30
5520;DHT22;2782;52.362;10.012;2023-07-22T03:16:58;21.80;67.30
5520;DHT22;2782;52.362;10.012;2023-07-22T03:18:00;21.80;67.30
5520;DHT22;2782;52.362;10.012;2023-07-22T03:19:00;21.80;67.30
5520;DHT22;2782;52.362;10.012;2023-07-22T03:20:02;21.80;67.20
5520;DHT22;2782;52.362;10.012;2023-07-22T03:21:11;21.80;67.20
5520;DHT22;2782;52.362;10.012;2023-07-22T03:22:14;21.80;67.20
5520;DHT22;2782;52.362;10.012;2023-07-22T03:23:16;21.80;67.30
5520;DHT22;2782;52.362;10.012;2023-07-22T03:24:17;21.80;67.20
5520;DHT22;2782;52.362;10.012;2023-07-22T03:25:19;21.80;67.20
5520;DHT22;2782;52.362;10.012;2023-07-22T03:26:22;21.80;67.20
5520;DHT22;2782;52.362;10.012;2023-07-22T03:27:23;21.80;67.30
5520;DHT22;2782;52.362;10.012;2023-07-22T03:28:24;21.80;67.20
5520;DHT22;2782;52.362;10.012;2023-07-22T03:29:27;21.80;67.20
5520;DHT22;2782;52.362;10.012;2023-07-22T03:30:28;21.80;67.20
5520;DHT22;2782;52.362;10.012;2023-07-22T03:31:30;21.80;67.10
5520;DHT22;2782;52.362;10.012;2023-07-22T03:32:31;21.80;67.10
5520;DHT22;2782;52.362;10.012;2023-07-22T03:33:32;21.80;67.20
5520;DHT22;2782;52.362;10.012;2023-07-22T03:34:35;21.80;67.20
5520;DHT22;2782;52.362;10.012;2023-07-22T03:35:36;21.80;67.10
5520;DHT22;2782;52.362;10.012;2023-07-22T03:36:38;21.80;67.10
5520;DHT22;2782;52.362;10.012;2023-07-22T03:37:40;21.80;67.20
5520;DHT22;2782;52.362;10.012;2023-07-22T03:38:40;21.80;67.20
5520;DHT22;2782;52.362;10.012;2023-07-22T03:39:42;21.80;67.20
5520;DHT22;2782;52.362;10.012;2023-07-22T03:40:43;21.80;67.10
5520;DHT22;2782;52.362;10.012;2023-07-22T03:41:46;21.80;67.10
5520;DHT22;2782;52.362;10.012;2023-07-22T03:42:47;21.80;67.10
5520;DHT22;2782;52.362;10.012;2023-07-22T03:43:49;21.80;67.10
5520;DHT22;2782;52.362;10.012;2023-07-22T03:44:49;21.80;67.20
5520;DHT22;2782;52.362;10.012;2023-07-22T03:45:51;21.80;67.10
5520;DHT22;2782;52.362;10.012;2023-07-22T03:46:52;21.80;67.10
5520;DHT22;2782;52.362;10.012;2023-07-22T03:47:57;21.80;67.10
5520;DHT22;2782;52.362;10.012;2023-07-22T03:48:57;21.80;67.10
5520;DHT22;2782;52.362;10.012;2023-07-22T03:49:59;21.80;67.10
5520;DHT22;2782;52.362;10.012;2023-07-22T03:51:00;21.80;67.10
5520;DHT22;2782;52.362;10.012;2023-07-22T03:52:02;21.80;67.10
5520;DHT22;2782;52.362;10.012;2023-07-22T03:53:03;21.80;67.10
5520;DHT22;2782;52.362;10.012;2023-07-22T03:54:05;21.80;67.10
5520;DHT22;2782;52.362;10.012;2023-07-22T03:55:06;21.80;67.10
5520;DHT22;2782;52.362;10.012;2023-07-22T03:56:07;21.80;67.10
5520;DHT22;2782;52.362;10.012;2023-07-22T03:57:09;21.80;67.10
5520;DHT22;2782;52.362;10.012;2023-07-22T03:58:11;21.80;67.10
5520;DHT22;2782;52.362;10.012;2023-07-22T03:59:12;21.80;67.10
5520;DHT22;2782;52.362;10.012;2023-07-22T04:00:14;21.80;67.10
5520;DHT22;2782;52.362;10.012;2023-07-22T04:01:14;21.80;67.10
5520;DHT22;2782;52.362;10.012;2023-07-22T04:02:16;21.80;67.10
5520;DHT22;2782;52.362;10.012;2023-07-22T04:03:17;21.80;67.00
5520;DHT22;2782;52.362;10.012;2023-07-22T04:04:18;21.80;67.00
5520;DHT22;2782;52.362;10.012;2023-07-22T04:05:19;21.80;67.10
5520;DHT22;2782;52.362;10.012;2023-07-22T04:06:21;21.80;67.10
5520;DHT22;2782;52.362;10.012;2023-07-22T04:07:22;21.80;67.00
5520;DHT22;2782;52.362;10.012;2023-07-22T04:08:24;21.80;67.00
5520;DHT22;2782;52.362;10.012;2023-07-22T04:09:27;21.80;67.00
5520;DHT22;2782;52.362;10.012;2023-07-22T04:10:29;21.80;67.00
5520;DHT22;2782;52.362;10.012;2023-07-22T04:11:30;21.80;67.00
5520;DHT22;2782;52.362;10.012;2023-07-22T04:12:33;21.80;67.00
5520;DHT22;2782;52.362;10.012;2023-07-22T04:13:34;21.80;67.00
5520;DHT22;2782;52.362;10.012;2023-07-22T04:14:35;21.80;67.00
5520;DHT22;2782;52.362;10.012;2023-07-22T04:15:36;21.90;67.10
5520;DHT22;2782;52.362;10.012;2023-07-22T04:16:37;21.80;67.10
5520;DHT22;2782;52.362;10.012;2023-07-22T04:17:39;21.80;67.10
5520;DHT22;2782;52.362;10.012;2023-07-22T04:18:40;21.80;67.00
5520;DHT22;2782;52.362;10.012;2023-07-22T04:19:42;21.90;67.10
5520;DHT22;2782;52.362;10.012;2023-07-22T04:20:43;21.80;67.00
5520;DHT22;2782;52.362;10.012;2023-07-22T04:21:44;21.90;67.10
5520;DHT22;2782;52.362;10.012;2023-07-22T04:22:45;21.90;67.10
5520;DHT22;2782;52.362;10.012;2023-07-22T04:23:46;21.90;67.20
5520;DHT22;2782;52.362;10.012;2023-07-22T04:24:47;21.90;67.10
5520;DHT22;2782;52.362;10.012;2023-07-22T04:25:49;21.80;67.00
5520;DHT22;2782;52.362;10.012;2023-07-22T04:26:50;21.90;67.20
5520;DHT22;2782;52.362;10.012;2023-07-22T04:27:53;21.90;67.20
5520;DHT22;2782;52.362;10.012;2023-07-22T04:28:54;21.80;67.00
5520;DHT22;2782;52.362;10.012;2023-07-22T04:29:55;21.90;67.10
5520;DHT22;2782;52.362;10.012;2023-07-22T04:30:58;21.90;67.20
5520;DHT22;2782;52.362;10.012;2023-07-22T04:32:00;21.90;67.10
5520;DHT22;2782;52.362;10.012;2023-07-22T04:33:01;21.90;67.10
5520;DHT22;2782;52.362;10.012;2023-07-22T04:34:03;21.80;67.00
5520;DHT22;2782;52.362;10.012;2023-07-22T04:35:06;21.80;67.00
5520;DHT22;2782;52.362;10.012;2023-07-22T04:36:07;21.90;67.10
5520;DHT22;2782;52.362;10.012;2023-07-22T04:37:09;21.80;67.00
5520;DHT22;2782;52.362;10.012;2023-07-22T04:38:10;21.90;67.10
5520;DHT22;2782;52.362;10.012;2023-07-22T04:39:12;21.90;67.10
5520;DHT22;2782;52.362;10.012;2023-07-22T04:40:13;21.90;67.10
5520;DHT22;2782;52.362;10.012;2023-07-22T04:41:17;21.90;67.80
5520;DHT22;2782;52.362;10.012;2023-07-22T04:42:18;21.90;67.10
5520;DHT22;2782;52.362;10.012;2023-07-22T04:43:21;21.90;67.10
5520;DHT22;2782;52.362;10.012;2023-07-22T04:44:22;21.90;67.00
5520;DHT22;2782;52.362;10.012;2023-07-22T04:45:23;21.90;67.00
5520;DHT22;2782;52.362;10.012;2023-07-22T04:46:25;21.90;67.00
5520;DHT22;2782;52.362;10.012;2023-07-22T04:47:26;21.90;66.90
5520;DHT22;2782;52.362;10.012;2023-07-22T04:48:28;21.90;66.90
5520;DHT22;2782;52.362;10.012;2023-07-22T04:49:28;22.00;66.90
5520;DHT22;2782;52.362;10.012;2023-07-22T04:50:30;22.00;66.90
5520;DHT22;2782;52.362;10.012;2023-07-22T04:51:31;22.00;66.70
5520;DHT22;2782;52.362;10.012;2023-07-22T04:52:32;22.00;66.60
5520;DHT22;2782;52.362;10.012;2023-07-22T04:53:33;22.00;66.60
5520;DHT22;2782;52.362;10.012;2023-07-22T04:54:35;22.00;66.50
5520;DHT22;2782;52.362;10.012;2023-07-22T04:55:35;22.10;66.50
5520;DHT22;2782;52.362;10.012;2023-07-22T04:56:37;22.10;66.50
5520;DHT22;2782;52.362;10.012;2023-07-22T04:57:40;22.10;66.50
5520;DHT22;2782;52.362;10.012;2023-07-22T04:58:43;22.10;66.40
5520;DHT22;2782;52.362;10.012;2023-07-22T04:59:44;22.10;66.40
5520;DHT22;2782;52.362;10.012;2023-07-22T05:00:46;22.10;66.40
5520;DHT22;2782;52.362;10.012;2023-07-22T05:01:46;22.10;66.40
5520;DHT22;2782;52.362;10.012;2023-07-22T05:02:48;22.10;66.30
5520;DHT22;2782;52.362;10.012;2023-07-22T05:03:49;22.10;66.30
5520;DHT22;2782;52.362;10.012;2023-07-22T05:04:50;22.10;66.20
5520;DHT22;2782;52.362;10.012;2023-07-22T05:05:51;22.10;66.40
5520;DHT22;2782;52.362;10.012;2023-07-22T05:06:53;22.10;66.30
5520;DHT22;2782;52.362;10.012;2023-07-22T05:07:54;22.10;66.30
5520;DHT22;2782;52.362;10.012;2023-07-22T05:08:55;22.10;66.30
5520;DHT22;2782;52.362;10.012;2023-07-22T05:09:56;22.10;66.30
5520;DHT22;2782;52.362;10.012;2023-07-22T05:10:58;22.10;66.30
5520;DHT22;2782;52.362;10.012;2023-07-22T05:11:58;22.10;67.00
5520;DHT22;2782;52.362;10.012;2023-07-22T05:13:00;22.10;66.30
5520;DHT22;2782;52.362;10.012;2023-07-22T05:14:02;22.10;66.10
5520;DHT22;2782;52.362;10.012;2023-07-22T05:15:04;22.10;66.10
5520;DHT22;2782;52.362;10.012;2023-07-22T05:16:05;22.10;66.10
5520;DHT22;2782;52.362;10.012;2023-07-22T05:17:07;22.10;66.10
5520;DHT22;2782;52.362;10.012;2023-07-22T05:18:08;22.10;66.10
5520;DHT22;2782;52.362;10.012;2023-07-22T05:19:09;22.10;66.90
5520;DHT22;2782;52.362;10.012;2023-07-22T05:20:10;22.10;66.10
5520;DHT22;2782;52.362;10.012;2023-07-22T05:21:13;22.10;66.10
5520;DHT22;2782;52.362;10.012;2023-07-22T05:22:13;22.10;66.10
5520;DHT22;2782;52.362;10.012;2023-07-22T05:23:15;22.10;66.20
5520;DHT22;2782;52.362;10.012;2023-07-22T05:24:16;22.10;64.70
5520;DHT22;2782;52.362;10.012;2023-07-22T05:25:17;22.10;65.40
5520;DHT22;2782;52.362;10.012;2023-07-22T05:26:18;22.10;64.80
5520;DHT22;2782;52.362;10.012;2023-07-22T05:27:20;22.10;64.90
5520;DHT22;2782;52.362;10.012;2023-07-22T05:28:20;22.10;65.00
5520;DHT22;2782;52.362;10.012;2023-07-22T05:29:23;22.10;65.50
5520;DHT22;2782;52.362;10.012;2023-07-22T05:30:24;22.10;65.90
5520;DHT22;2782;52.362;10.012;2023-07-22T05:31:26;22.10;65.90
5520;DHT22;2782;52.362;10.012;2023-07-22T05:32:28;22.10;66.00
5520;DHT22;2782;52.362;10.012;2023-07-22T05:33:30;22.10;65.90
5520;DHT22;2782;52.362;10.012;2023-07-22T05:34:31;22.10;65.90
5520;DHT22;2782;52.362;10.012;2023-07-22T05:35:32;22.10;66.50
5520;DHT22;2782;52.362;10.012;2023-07-22T05:36:33;22.10;65.70
5520;DHT22;2782;52.362;10.012;2023-07-22T05:37:35;22.10;65.80
5520;DHT22;2782;52.362;10.012;2023-07-22T05:38:35;22.10;65.80
5520;DHT22;2782;52.362;10.012;2023-07-22T05:39:37;22.10;65.70
5520;DHT22;2782;52.362;10.012;2023-07-22T05:40:38;22.10;65.80
5520;DHT22;2782;52.362;10.012;2023-07-22T05:41:39;22.10;65.60
5520;DHT22;2782;52.362;10.012;2023-07-22T05:42:40;22.10;65.80
5520;DHT22;2782;52.362;10.012;2023-07-22T05:43:42;22.10;66.60
5520;DHT22;2782;52.362;10.012;2023-07-22T05:44:44;22.10;65.90
5520;DHT22;2782;52.362;10.012;2023-07-22T05:45:46;22.10;66.00
5520;DHT22;2782;52.362;10.012;2023-07-22T05:46:46;22.10;66.00
5520;DHT22;2782;52.362;10.012;2023-07-22T05:47:48;22.10;66.10
5520;DHT22;2782;52.362;10.012;2023-07-22T05:48:49;22.10;66.20
5520;DHT22;2782;52.362;10.012;2023-07-22T05:49:50;22.10;66.20
5520;DHT22;2782;52.362;10.012;2023-07-22T05:50:51;22.10;66.20
5520;DHT22;2782;52.362;10.012;2023-07-22T05:51:53;22.10;66.40
5520;DHT22;2782;52.362;10.012;2023-07-22T05:52:54;22.10;66.60
5520;DHT22;2782;52.362;10.012;2023-07-22T05:53:56;22.10;66.60
5520;DHT22;2782;52.362;10.012;2023-07-22T05:54:57;22.10;66.70
5520;DHT22;2782;52.362;10.012;2023-07-22T05:55:59;22.10;66.80
5520;DHT22;2782;52.362;10.012;2023-07-22T05:57:00;22.10;66.90
5520;DHT22;2782;52.362;10.012;2023-07-22T05:58:03;22.10;66.90
5520;DHT22;2782;52.362;10.012;2023-07-22T05:59:05;22.10;67.20
5520;DHT22;2782;52.362;10.012;2023-07-22T06:00:09;22.10;67.20
5520;DHT22;2782;52.362;10.012;2023-07-22T06:01:13;22.10;67.30
5520;DHT22;2782;52.362;10.012;2023-07-22T06:02:17;22.00;67.20
5520;DHT22;2782;52.362;10.012;2023-07-22T06:03:18;22.10;67.10
5520;DHT22;2782;52.362;10.012;2023-07-22T06:04:21;22.00;64.80
5520;DHT22;2782;52.362;10.012;2023-07-22T06:05:22;22.00;64.60
5520;DHT22;2782;52.362;10.012;2023-07-22T06:06:24;22.00;65.50
5520;DHT22;2782;52.362;10.012;2023-07-22T06:07:24;21.90;64.50
5520;DHT22;2782;52.362;10.012;2023-07-22T06:08:26;21.90;64.00
5520;DHT22;2782;52.362;10.012;2023-07-22T06:09:27;21.90;64.60
5520;DHT22;2782;52.362;10.012;2023-07-22T06:10:28;21.90;64.80
5520;DHT22;2782;52.362;10.012;2023-07-22T06:11:30;21.90;65.20
5520;DHT22;2782;52.362;10.012;2023-07-22T06:12:31;21.90;65.40
5520;DHT22;2782;52.362;10.012;2023-07-22T06:13:32;21.90;65.80
5520;DHT22;2782;52.362;10.012;2023-07-22T06:14:34;21.90;66.50
5520;DHT22;2782;52.362;10.012;2023-07-22T06:15:36;21.90;66.90
5520;DHT22;2782;52.362;10.012;2023-07-22T06:16:37;21.90;67.10
5520;DHT22;2782;52.362;10.012;2023-07-22T06:17:38;21.90;67.10
5520;DHT22;2782;52.362;10.012;2023-07-22T06:18:39;21.90;67.00
5520;DHT22;2782;52.362;10.012;2023-07-22T06:19:41;21.90;67.10
5520;DHT22;2782;52.362;10.012;2023-07-22T06:20:42;21.90;67.10
5520;DHT22;2782;52.362;10.012;2023-07-22T06:21:43;21.90;67.20
5520;DHT22;2782;52.362;10.012;2023-07-22T06:22:44;22.00;67.30
5520;DHT22;2782;52.362;10.012;2023-07-22T06:23:46;21.90;67.30
5520;DHT22;2782;52.362;10.012;2023-07-22T06:24:47;22.00;67.40
5520;DHT22;2782;52.362;10.012;2023-07-22T06:25:48;22.00;67.40
5520;DHT22;2782;52.362;10.012;2023-07-22T06:26:49;22.00;67.30
5520;DHT22;2782;52.362;10.012;2023-07-22T06:27:51;22.00;67.40
5520;DHT22;2782;52.362;10.012;2023-07-22T06:28:54;22.00;67.30
5520;DHT22;2782;52.362;10.012;2023-07-22T06:29:56;22.00;67.30
5520;DHT22;2782;52.362;10.012;2023-07-22T06:30:58;22.00;67.30
5520;DHT22;2782;52.362;10.012;2023-07-22T06:32:00;22.10;67.40
5520;DHT22;2782;52.362;10.012;2023-07-22T06:33:00;22.00;67.20
5520;DHT22;2782;52.362;10.012;2023-07-22T06:34:02;22.00;67.20
5520;DHT22;2782;52.362;10.012;2023-07-22T06:35:04;22.10;67.20